createdAt,value
2022-08-02T12:29:57.917Z,28.55
2022-08-02T12:31:01.820Z,27.03
2022-08-02T12:32:07.547Z,29.35
2022-08-02T12:33:13.232Z,29.68
2022-08-02T12:34:21.364Z,30.58
2022-08-02T12:35:51.716Z,28.92
2022-08-02T12:37:18.577Z,27.14
2022-08-02T12:38:23.318Z,26.61
2022-08-02T12:39:39.144Z,29.60
2022-08-02T12:40:44.055Z,26.89
2022-08-02T12:41:57.488Z,26.56
2022-08-02T12:43:05.144Z,25.20
2022-08-02T12:44:19.848Z,24.41
2022-08-02T12:45:25.046Z,22.62
2022-08-02T12:46:31.569Z,23.37
2022-08-02T12:47:49.044Z,22.47
2022-08-02T12:49:16.901Z,22.43
2022-08-02T12:50:22.778Z,23.14
2022-08-02T12:51:56.417Z,21.32
2022-08-02T12:52:52.520Z,21.26
2022-08-02T12:53:59.715Z,21.20
2022-08-02T12:55:18.737Z,24.32
2022-08-02T12:56:33.784Z,24.53
2022-08-02T12:57:54.320Z,24.91
2022-08-02T12:59:01.151Z,25.71
2022-08-02T13:00:04.561Z,24.61
2022-08-02T13:01:09.154Z,23.65
2022-08-02T13:02:13.141Z,22.39
2022-08-02T13:04:09.606Z,20.35
2022-08-02T13:04:49.129Z,20.71
2022-08-02T13:05:56.937Z,20.64
2022-08-02T13:07:03.030Z,21.34
2022-08-02T13:08:06.203Z,22.81
2022-08-02T13:09:19.458Z,21.41
2022-08-02T13:10:24.632Z,22.26
2022-08-02T13:11:27.253Z,23.08
2022-08-02T13:12:31.964Z,21.55
2022-08-02T13:13:36.769Z,20.99
2022-08-02T13:14:42.694Z,20.37
2022-08-02T13:15:49.214Z,19.51
2022-08-02T13:16:55.572Z,19.16
2022-08-02T13:17:59.217Z,19.32
2022-08-02T13:19:03.829Z,18.13
2022-08-02T13:20:10.950Z,17.68
2022-08-02T13:21:34.774Z,17.63
2022-08-02T13:22:51.380Z,20.03
2022-08-02T13:23:55.569Z,23.24
2022-08-02T13:25:00.223Z,25.41
2022-08-02T13:26:03.645Z,24.70
2022-08-02T13:27:09.194Z,24.88
2022-08-02T13:28:14.434Z,24.76
2022-08-02T13:29:19.041Z,22.79
2022-08-02T13:30:23.795Z,21.52
2022-08-02T13:31:35.943Z,21.35
2022-08-02T13:32:41.617Z,19.90
2022-08-02T13:33:46.361Z,20.95
2022-08-02T13:34:49.028Z,22.57
2022-08-02T13:35:54.172Z,23.72
2022-08-02T13:36:58.943Z,23.00
2022-08-02T13:38:04.485Z,21.33
2022-08-02T13:39:06.590Z,23.06
2022-08-02T13:40:21.780Z,24.35
2022-08-02T13:41:24.218Z,25.48
2022-08-02T13:42:28.835Z,25.27
2022-08-02T13:43:54.019Z,25.23
2022-08-02T13:44:58.029Z,25.82
2022-08-02T13:46:00.353Z,26.04
2022-08-02T13:47:05.082Z,27.21
2022-08-02T13:48:16.798Z,26.96
2022-08-02T13:49:21.692Z,28.38
2022-08-02T13:50:43.210Z,28.10
2022-08-02T13:51:45.180Z,27.16
2022-08-02T13:52:49.910Z,25.40
2022-08-02T13:53:54.026Z,24.42
2022-08-02T13:54:58.675Z,21.33
2022-08-02T13:56:01.323Z,20.05
2022-08-02T13:57:05.923Z,19.13
2022-08-02T13:58:08.323Z,18.39
2022-08-02T13:59:57.456Z,17.63
2022-08-02T14:00:40.551Z,17.18
2022-08-02T14:01:42.751Z,16.56
2022-08-02T14:02:47.535Z,15.81
2022-08-02T14:04:08.645Z,15.57
2022-08-02T14:05:13.876Z,14.42
2022-08-02T14:06:18.799Z,14.87
2022-08-02T14:07:21.274Z,14.69
2022-08-02T14:08:26.134Z,15.21
2022-08-02T14:09:28.581Z,15.29
2022-08-02T14:10:33.855Z,16.74
2022-08-02T14:11:35.952Z,19.22
2022-08-02T14:12:40.627Z,19.46
2022-08-02T14:13:45.359Z,19.07
2022-08-02T14:14:50.035Z,17.37
2022-08-02T14:15:54.751Z,19.29
2022-08-02T14:16:59.916Z,18.49
2022-08-02T14:18:06.229Z,18.35
2022-08-02T14:19:15.454Z,18.31
2022-08-02T14:20:29.835Z,16.99
2022-08-02T14:21:46.646Z,16.90
2022-08-02T14:22:52.542Z,17.63
2022-08-02T14:23:57.178Z,18.00
2022-08-02T14:24:59.257Z,17.82
2022-08-02T14:26:27.125Z,18.19
2022-08-02T14:27:37.709Z,18.29
2022-08-02T14:28:44.359Z,17.84
2022-08-02T14:29:48.374Z,17.99
2022-08-02T14:30:53.396Z,17.44
2022-08-02T14:31:57.932Z,17.58
2022-08-02T14:33:06.085Z,18.22
2022-08-02T14:34:08.194Z,18.01
2022-08-02T14:35:12.963Z,18.65
2022-08-02T14:36:15.103Z,18.29
2022-08-02T14:37:32.853Z,17.87
2022-08-02T14:38:36.544Z,17.84
2022-08-02T14:39:43.569Z,16.41
2022-08-02T14:41:05.236Z,16.12
2022-08-02T14:42:07.961Z,15.99
2022-08-02T14:43:32.544Z,15.83
2022-08-02T14:44:35.172Z,14.95
2022-08-02T14:45:41.442Z,14.68
2022-08-02T14:46:43.968Z,14.80
2022-08-02T14:47:51.641Z,14.09
